createdAt,value
2019-06-08T00:03:43.707Z,22.43
2019-06-08T00:08:48.668Z,21.10
2019-06-08T00:13:53.644Z,19.60
2019-06-08T00:18:58.655Z,20.33
2019-06-08T00:24:04.634Z,21.53
2019-06-08T00:29:09.622Z,22.37
2019-06-08T00:34:14.679Z,23.60
2019-06-08T00:39:20.912Z,23.53
2019-06-08T00:44:25.996Z,24.83
2019-06-08T00:49:30.962Z,23.33
2019-06-08T00:54:35.952Z,25.20
2019-06-08T00:59:40.998Z,26.43
2019-06-08T01:04:45.987Z,29.27
2019-06-08T01:09:50.984Z,29.40
2019-06-08T01:14:55.991Z,30.43
2019-06-08T01:20:01.052Z,29.60
2019-06-08T01:25:06.369Z,28.63
2019-06-08T01:30:11.335Z,31.57
2019-06-08T01:35:16.394Z,30.83
2019-06-08T01:40:21.385Z,30.87
2019-06-08T01:45:33.050Z,30.27
2019-06-08T01:50:38.321Z,32.37
2019-06-08T01:55:43.337Z,29.07
2019-06-08T02:00:48.519Z,30.40
2019-06-08T02:05:53.500Z,30.43
2019-06-08T02:10:58.499Z,31.33
2019-06-08T02:16:03.481Z,31.80
2019-06-08T02:21:08.517Z,30.87
2019-06-08T02:26:13.559Z,30.53
2019-06-08T02:31:18.530Z,30.87
2019-06-08T02:36:23.935Z,33.00
2019-06-08T02:41:29.068Z,32.83
2019-06-08T02:46:35.950Z,33.60
2019-06-08T02:51:41.157Z,35.93
2019-06-08T02:56:47.876Z,33.33
2019-06-08T03:01:53.224Z,33.10
2019-06-08T03:06:58.350Z,34.43
2019-06-08T03:12:06.251Z,34.13
2019-06-08T03:17:11.366Z,33.07
2019-06-08T03:22:16.419Z,32.70
2019-06-08T03:27:21.394Z,34.57
2019-06-08T03:32:26.366Z,34.17
2019-06-08T03:37:31.407Z,33.97
2019-06-08T03:42:36.838Z,30.47
2019-06-08T03:47:43.608Z,32.60
2019-06-08T03:52:48.580Z,34.73
2019-06-08T03:57:53.552Z,31.20
2019-06-08T04:02:58.618Z,33.23
2019-06-08T04:08:03.612Z,35.40
2019-06-08T04:13:11.374Z,38.67
2019-06-08T04:18:15.343Z,37.47
2019-06-08T04:23:20.581Z,37.33
2019-06-08T04:28:25.532Z,37.43
2019-06-08T04:33:30.566Z,37.67
2019-06-08T04:38:35.542Z,37.17
2019-06-08T04:43:42.852Z,37.17
2019-06-08T04:48:50.023Z,37.10
2019-06-08T04:53:55.403Z,39.30
2019-06-08T04:59:00.431Z,35.53
2019-06-08T05:04:05.397Z,38.63
2019-06-08T05:09:10.356Z,38.00
2019-06-08T05:14:15.305Z,43.83
2019-06-08T05:19:20.244Z,39.97
2019-06-08T05:24:25.288Z,39.10
2019-06-08T05:29:30.237Z,45.97
2019-06-08T05:34:35.363Z,36.90
2019-06-08T05:39:41.405Z,36.03
2019-06-08T05:44:47.789Z,37.13
2019-06-08T05:49:52.913Z,33.87
2019-06-08T05:54:57.944Z,34.53
2019-06-08T06:00:08.840Z,35.00
2019-06-08T06:05:09.663Z,32.10
2019-06-08T06:10:15.287Z,30.57
2019-06-08T06:15:20.322Z,30.90
2019-06-08T06:20:25.345Z,31.33
2019-06-08T06:25:30.366Z,29.03
2019-06-08T06:30:35.322Z,28.40
2019-06-08T06:35:41.442Z,27.23
2019-06-08T06:40:47.994Z,27.83
2019-06-08T06:45:53.211Z,28.87
2019-06-08T06:50:58.245Z,29.00
2019-06-08T06:56:04.338Z,33.33
2019-06-08T07:01:09.284Z,26.57
2019-06-08T07:06:14.235Z,25.63
2019-06-08T07:11:19.931Z,30.20
2019-06-08T07:16:25.090Z,26.87
2019-06-08T07:21:41.308Z,26.53
2019-06-08T07:26:37.181Z,25.33
2019-06-08T07:31:42.200Z,26.33
2019-06-08T07:36:48.332Z,26.40
2019-06-08T07:41:55.853Z,27.10
2019-06-08T07:47:01.062Z,26.73
2019-06-08T07:52:10.348Z,27.80
2019-06-08T07:57:13.231Z,24.30
2019-06-08T08:02:18.227Z,22.60
2019-06-08T08:07:23.306Z,23.07
2019-06-08T08:12:28.257Z,22.30
2019-06-08T08:17:34.432Z,19.70
2019-06-08T08:22:39.672Z,17.83
2019-06-08T08:27:44.721Z,15.43
2019-06-08T08:32:50.959Z,13.70
2019-06-08T08:38:00.775Z,11.80
2019-06-08T08:43:02.962Z,13.70
2019-06-08T08:48:21.484Z,7.03
2019-06-08T08:53:14.539Z,11.97
2019-06-08T08:58:19.684Z,5.17
2019-06-08T09:03:29.585Z,4.60
2019-06-08T09:08:31.199Z,4.53
2019-06-08T09:13:37.725Z,6.23
2019-06-08T09:18:42.902Z,4.40
2019-06-08T09:23:48.633Z,4.73
2019-06-08T09:28:54.496Z,3.20
2019-06-08T09:34:08.310Z,2.90
2019-06-08T09:39:12.280Z,4.30
2019-06-08T09:44:14.930Z,10.27
2019-06-08T09:49:20.133Z,15.47
2019-06-08T09:54:25.214Z,3.33
2019-06-08T09:59:30.215Z,4.80
2019-06-08T10:04:35.220Z,2.23
2019-06-08T10:09:43.265Z,3.67
2019-06-08T10:14:48.874Z,2.50
2019-06-08T10:19:54.694Z,4.23
2019-06-08T10:25:02.799Z,9.97
2019-06-08T10:30:09.930Z,2.60
2019-06-08T10:35:14.063Z,4.43
2019-06-08T10:40:19.043Z,1.23
2019-06-08T10:45:24.089Z,1.30
2019-06-08T10:50:29.127Z,1.83
2019-06-08T10:55:34.154Z,1.43
2019-06-08T11:00:39.197Z,2.37
2019-06-08T11:05:45.396Z,5.03
2019-06-08T11:10:50.451Z,3.63
2019-06-08T11:15:58.055Z,2.00
2019-06-08T11:21:03.536Z,1.40
2019-06-08T11:26:19.140Z,2.00
2019-06-08T11:31:19.438Z,3.10
2019-06-08T11:36:23.081Z,1.70
2019-06-08T11:41:28.122Z,3.63
2019-06-08T11:46:33.197Z,8.87
2019-06-08T11:51:38.215Z,2.13
2019-06-08T11:56:43.257Z,2.10
2019-06-08T12:01:50.460Z,1.80
2019-06-08T12:06:54.938Z,2.13
2019-06-08T12:11:59.988Z,1.90
2019-06-08T12:17:05.195Z,3.57
2019-06-08T12:22:11.632Z,1.60
2019-06-08T12:27:29.518Z,2.53
2019-06-08T12:32:23.541Z,4.30
2019-06-08T12:37:28.572Z,3.03
2019-06-08T12:42:33.546Z,1.97
2019-06-08T12:47:38.746Z,6.07
2019-06-08T12:52:43.694Z,1.30
2019-06-08T12:57:51.499Z,8.70
2019-06-08T13:02:55.241Z,3.50
2019-06-08T13:08:00.208Z,3.70
2019-06-08T13:13:05.407Z,1.03
2019-06-08T13:18:11.959Z,1.80
2019-06-08T13:23:19.654Z,1.57
2019-06-08T13:28:25.517Z,1.13
2019-06-08T13:33:30.398Z,2.63
2019-06-08T13:38:35.381Z,1.80
2019-06-08T13:43:40.622Z,1.80
2019-06-08T13:48:48.086Z,1.60
2019-06-08T13:53:52.291Z,1.37
2019-06-08T13:58:57.255Z,1.70
2019-06-08T14:04:02.291Z,2.63
2019-06-08T14:09:08.282Z,2.23
2019-06-08T14:14:13.450Z,3.00
2019-06-08T14:19:19.985Z,1.87
2019-06-08T14:24:31.836Z,2.20
2019-06-08T14:29:31.637Z,2.90
2019-06-08T14:34:38.651Z,2.57
2019-06-08T14:39:43.266Z,1.63
2019-06-08T14:44:48.249Z,9.40
2019-06-08T14:49:53.227Z,2.27
2019-06-08T14:54:58.689Z,2.10
2019-06-08T15:00:09.645Z,2.20
2019-06-08T15:05:14.542Z,1.10
2019-06-08T15:10:21.350Z,1.33
2019-06-08T15:15:28.907Z,3.27
2019-06-08T15:20:32.682Z,3.57
2019-06-08T15:25:38.704Z,7.10
2019-06-08T15:30:43.916Z,4.03
2019-06-08T15:35:48.848Z,7.13
2019-06-08T15:40:53.923Z,1.90
2019-06-08T15:45:59.269Z,19.23
2019-06-08T15:51:04.419Z,3.03
2019-06-08T15:56:09.738Z,2.67
2019-06-08T16:01:14.849Z,10.57
2019-06-08T16:06:19.894Z,1.93
2019-06-08T16:11:26.028Z,1.93
2019-06-08T16:16:31.210Z,3.20
2019-06-08T16:21:36.285Z,2.30
2019-06-08T16:26:52.634Z,1.87
2019-06-08T16:31:49.014Z,3.97
2019-06-08T16:36:54.028Z,4.27
2019-06-08T16:41:58.985Z,5.20
2019-06-08T16:47:03.985Z,2.67
2019-06-08T16:52:09.865Z,4.70
2019-06-08T16:57:14.829Z,2.17
2019-06-08T17:02:19.802Z,3.13
2019-06-08T17:07:24.775Z,1.93
2019-06-08T17:12:30.702Z,2.70
2019-06-08T17:17:36.574Z,2.60
2019-06-08T17:22:41.740Z,2.00
2019-06-08T17:27:46.709Z,3.60
2019-06-08T17:32:51.674Z,2.83
2019-06-08T17:37:56.690Z,5.53
2019-06-08T17:43:01.677Z,5.63
2019-06-08T17:48:06.702Z,3.20
2019-06-08T17:53:11.649Z,7.60
2019-06-08T17:58:16.601Z,4.03
2019-06-08T18:03:21.635Z,4.30
2019-06-08T18:08:28.230Z,2.63
2019-06-08T18:13:33.976Z,2.70
2019-06-08T18:18:41.806Z,2.57
2019-06-08T18:23:48.020Z,3.07
2019-06-08T18:28:55.036Z,2.90
2019-06-08T18:34:01.965Z,6.37
2019-06-08T18:39:07.216Z,5.23
2019-06-08T18:44:12.353Z,6.43
2019-06-08T18:49:17.879Z,5.80
2019-06-08T18:54:23.118Z,6.43
2019-06-08T18:59:28.819Z,6.40
2019-06-08T19:04:37.438Z,7.13
2019-06-08T19:09:42.618Z,7.40
2019-06-08T19:14:50.091Z,7.90
2019-06-08T19:19:54.831Z,12.20
2019-06-08T19:24:59.865Z,11.03
2019-06-08T19:30:05.869Z,10.10
2019-06-08T19:35:10.943Z,12.57
2019-06-08T19:40:17.656Z,15.27
2019-06-08T19:45:22.700Z,14.77
2019-06-08T19:50:28.747Z,20.67
2019-06-08T19:55:33.997Z,20.07
2019-06-08T20:00:40.452Z,24.23
2019-06-08T20:05:46.800Z,21.20
2019-06-08T20:10:53.405Z,19.73
2019-06-08T20:16:01.934Z,16.90
2019-06-08T20:21:10.063Z,19.37
2019-06-08T20:26:12.986Z,27.10
2019-06-08T20:31:18.131Z,23.90
2019-06-08T20:36:23.147Z,19.40
2019-06-08T20:41:28.091Z,21.30
2019-06-08T20:46:33.054Z,28.17
2019-06-08T20:51:39.014Z,26.43
2019-06-08T20:56:44.966Z,24.53
2019-06-08T21:01:52.694Z,30.67
2019-06-08T21:06:57.466Z,29.70
2019-06-08T21:12:03.754Z,22.87
2019-06-08T21:17:08.717Z,32.50
2019-06-08T21:22:13.680Z,9.50
2019-06-08T21:27:18.612Z,8.50
2019-06-08T21:32:24.543Z,8.90
2019-06-08T21:37:29.487Z,11.50
2019-06-08T21:42:36.963Z,13.73
2019-06-08T21:47:41.469Z,10.70
2019-06-08T21:52:48.661Z,10.23
2019-06-08T21:57:54.324Z,13.73
2019-06-08T22:03:00.254Z,12.83
2019-06-08T22:08:07.793Z,14.87
2019-06-08T22:13:12.502Z,14.97
2019-06-08T22:18:18.451Z,14.97
2019-06-08T22:23:23.595Z,14.27
2019-06-08T22:28:28.724Z,14.43
2019-06-08T22:33:33.773Z,16.80
2019-06-08T22:38:38.760Z,23.00
2019-06-08T22:43:44.755Z,18.33
2019-06-08T22:48:49.810Z,17.00
2019-06-08T22:53:58.877Z,16.87
2019-06-08T22:59:04.729Z,16.37
2019-06-08T23:04:09.182Z,15.73
2019-06-08T23:09:14.108Z,18.30
2019-06-08T23:14:19.041Z,15.63
2019-06-08T23:19:26.358Z,16.90
2019-06-08T23:24:31.672Z,16.10
2019-06-08T23:29:38.190Z,15.63
2019-06-08T23:34:43.461Z,16.07
2019-06-08T23:39:48.423Z,11.00
2019-06-08T23:44:53.436Z,9.13
2019-06-08T23:50:00.726Z,11.90
2019-06-08T23:55:06.167Z,12.10
